sensor_id;sensor_type;location;lat;lon;timestamp;P1;durP1;ratioP1;P2;durP2;ratioP2
55292;SDS011;41157;53.560;10.098;2023-12-22T00:00:13;20.73;;;3.83;;
55292;SDS011;41157;53.560;10.098;2023-12-22T00:02:40;16.37;;;3.40;;
55292;SDS011;41157;53.560;10.098;2023-12-22T00:05:07;23.67;;;3.67;;
55292;SDS011;41157;53.560;10.098;2023-12-22T00:07:36;13.10;;;3.07;;
55292;SDS011;41157;53.560;10.098;2023-12-22T00:10:03;23.47;;;3.80;;
55292;SDS011;41157;53.560;10.098;2023-12-22T00:12:30;15.03;;;3.67;;
55292;SDS011;41157;53.560;10.098;2023-12-22T00:14:58;21.47;;;4.27;;
55292;SDS011;41157;53.560;10.098;2023-12-22T00:17:25;14.40;;;4.07;;
55292;SDS011;41157;53.560;10.098;2023-12-22T00:19:52;14.30;;;3.40;;
55292;SDS011;41157;53.560;10.098;2023-12-22T00:22:20;22.27;;;3.33;;
55292;SDS011;41157;53.560;10.098;2023-12-22T00:24:48;15.17;;;3.60;;
55292;SDS011;41157;53.560;10.098;2023-12-22T00:27:15;24.63;;;3.67;;
55292;SDS011;41157;53.560;10.098;2023-12-22T00:29:42;18.03;;;3.20;;
55292;SDS011;41157;53.560;10.098;2023-12-22T00:32:09;20.03;;;3.27;;
55292;SDS011;41157;53.560;10.098;2023-12-22T00:34:36;20.17;;;3.73;;
55292;SDS011;41157;53.560;10.098;2023-12-22T00:37:03;19.60;;;4.60;;
55292;SDS011;41157;53.560;10.098;2023-12-22T00:39:30;29.30;;;3.50;;
55292;SDS011;41157;53.560;10.098;2023-12-22T00:41:58;28.80;;;3.87;;
55292;SDS011;41157;53.560;10.098;2023-12-22T00:44:26;17.00;;;3.50;;
55292;SDS011;41157;53.560;10.098;2023-12-22T00:46:54;16.00;;;3.47;;
55292;SDS011;41157;53.560;10.098;2023-12-22T00:49:21;18.53;;;4.23;;
55292;SDS011;41157;53.560;10.098;2023-12-22T00:51:48;19.07;;;3.40;;
55292;SDS011;41157;53.560;10.098;2023-12-22T00:54:15;13.63;;;3.67;;
55292;SDS011;41157;53.560;10.098;2023-12-22T00:56:42;18.07;;;3.47;;
55292;SDS011;41157;53.560;10.098;2023-12-22T00:59:11;17.80;;;4.23;;
55292;SDS011;41157;53.560;10.098;2023-12-22T01:01:38;14.30;;;3.40;;
55292;SDS011;41157;53.560;10.098;2023-12-22T01:04:05;20.70;;;3.93;;
55292;SDS011;41157;53.560;10.098;2023-12-22T01:06:36;14.43;;;3.10;;
55292;SDS011;41157;53.560;10.098;2023-12-22T01:09:03;17.77;;;4.00;;
55292;SDS011;41157;53.560;10.098;2023-12-22T01:11:30;31.17;;;3.80;;
55292;SDS011;41157;53.560;10.098;2023-12-22T01:13:57;21.07;;;4.30;;
55292;SDS011;41157;53.560;10.098;2023-12-22T01:16:25;14.07;;;3.13;;
55292;SDS011;41157;53.560;10.098;2023-12-22T01:18:52;19.80;;;3.17;;
55292;SDS011;41157;53.560;10.098;2023-12-22T01:21:19;15.83;;;3.03;;
55292;SDS011;41157;53.560;10.098;2023-12-22T01:23:46;14.70;;;2.97;;
55292;SDS011;41157;53.560;10.098;2023-12-22T01:26:13;20.20;;;3.27;;
55292;SDS011;41157;53.560;10.098;2023-12-22T01:28:40;19.10;;;3.17;;
55292;SDS011;41157;53.560;10.098;2023-12-22T01:31:07;18.37;;;3.30;;
55292;SDS011;41157;53.560;10.098;2023-12-22T01:33:36;15.33;;;2.43;;
55292;SDS011;41157;53.560;10.098;2023-12-22T01:36:03;11.03;;;2.57;;
55292;SDS011;41157;53.560;10.098;2023-12-22T01:38:30;12.83;;;2.17;;
55292;SDS011;41157;53.560;10.098;2023-12-22T01:40:57;6.33;;;1.77;;
55292;SDS011;41157;53.560;10.098;2023-12-22T01:43:24;2.33;;;1.33;;
55292;SDS011;41157;53.560;10.098;2023-12-22T01:45:52;5.03;;;1.10;;
55292;SDS011;41157;53.560;10.098;2023-12-22T01:48:20;4.13;;;1.60;;
55292;SDS011;41157;53.560;10.098;2023-12-22T01:50:49;9.80;;;1.00;;
55292;SDS011;41157;53.560;10.098;2023-12-22T01:53:17;9.30;;;1.17;;
55292;SDS011;41157;53.560;10.098;2023-12-22T01:55:44;4.57;;;1.13;;
55292;SDS011;41157;53.560;10.098;2023-12-22T01:58:12;7.37;;;1.00;;
55292;SDS011;41157;53.560;10.098;2023-12-22T02:00:39;2.73;;;1.30;;
55292;SDS011;41157;53.560;10.098;2023-12-22T02:03:07;3.53;;;0.90;;
55292;SDS011;41157;53.560;10.098;2023-12-22T02:05:34;0.80;;;0.80;;
55292;SDS011;41157;53.560;10.098;2023-12-22T02:08:03;3.53;;;0.80;;
55292;SDS011;41157;53.560;10.098;2023-12-22T02:10:30;2.50;;;0.90;;
55292;SDS011;41157;53.560;10.098;2023-12-22T02:12:58;3.17;;;1.03;;
55292;SDS011;41157;53.560;10.098;2023-12-22T02:15:25;2.20;;;1.07;;
55292;SDS011;41157;53.560;10.098;2023-12-22T02:17:55;3.03;;;0.97;;
55292;SDS011;41157;53.560;10.098;2023-12-22T02:20:23;3.30;;;1.40;;
55292;SDS011;41157;53.560;10.098;2023-12-22T02:22:52;8.57;;;1.00;;
55292;SDS011;41157;53.560;10.098;2023-12-22T02:25:19;3.03;;;1.57;;
55292;SDS011;41157;53.560;10.098;2023-12-22T02:27:47;4.50;;;1.03;;
55292;SDS011;41157;53.560;10.098;2023-12-22T02:30:17;6.77;;;1.47;;
55292;SDS011;41157;53.560;10.098;2023-12-22T02:32:47;8.27;;;1.47;;
55292;SDS011;41157;53.560;10.098;2023-12-22T02:35:16;7.93;;;1.57;;
55292;SDS011;41157;53.560;10.098;2023-12-22T02:37:45;9.00;;;1.90;;
55292;SDS011;41157;53.560;10.098;2023-12-22T02:40:14;7.87;;;1.20;;
55292;SDS011;41157;53.560;10.098;2023-12-22T02:42:42;3.73;;;1.20;;
55292;SDS011;41157;53.560;10.098;2023-12-22T02:45:12;9.30;;;2.03;;
55292;SDS011;41157;53.560;10.098;2023-12-22T02:47:39;8.20;;;1.57;;
55292;SDS011;41157;53.560;10.098;2023-12-22T02:50:07;9.00;;;1.70;;
55292;SDS011;41157;53.560;10.098;2023-12-22T02:52:34;8.43;;;1.83;;
55292;SDS011;41157;53.560;10.098;2023-12-22T02:55:01;13.13;;;2.10;;
55292;SDS011;41157;53.560;10.098;2023-12-22T02:57:29;7.07;;;1.50;;
55292;SDS011;41157;53.560;10.098;2023-12-22T02:59:57;7.97;;;1.47;;
55292;SDS011;41157;53.560;10.098;2023-12-22T03:02:24;7.90;;;1.13;;
55292;SDS011;41157;53.560;10.098;2023-12-22T03:04:51;8.50;;;1.87;;
55292;SDS011;41157;53.560;10.098;2023-12-22T03:07:18;12.40;;;1.80;;
55292;SDS011;41157;53.560;10.098;2023-12-22T03:09:45;3.20;;;1.23;;
55292;SDS011;41157;53.560;10.098;2023-12-22T03:12:12;1.50;;;0.80;;
55292;SDS011;41157;53.560;10.098;2023-12-22T03:14:40;6.27;;;1.23;;
55292;SDS011;41157;53.560;10.098;2023-12-22T03:17:07;4.20;;;0.97;;
55292;SDS011;41157;53.560;10.098;2023-12-22T03:19:35;1.53;;;0.60;;
55292;SDS011;41157;53.560;10.098;2023-12-22T03:22:03;4.47;;;0.97;;
55292;SDS011;41157;53.560;10.098;2023-12-22T03:24:30;2.40;;;1.03;;
55292;SDS011;41157;53.560;10.098;2023-12-22T03:26:57;3.00;;;1.03;;
55292;SDS011;41157;53.560;10.098;2023-12-22T03:29:24;12.60;;;1.40;;
55292;SDS011;41157;53.560;10.098;2023-12-22T03:31:52;3.67;;;0.80;;
55292;SDS011;41157;53.560;10.098;2023-12-22T03:34:19;6.27;;;1.10;;
55292;SDS011;41157;53.560;10.098;2023-12-22T03:36:46;1.80;;;0.77;;
55292;SDS011;41157;53.560;10.098;2023-12-22T03:39:13;3.23;;;0.67;;
55292;SDS011;41157;53.560;10.098;2023-12-22T03:41:40;2.00;;;0.70;;
55292;SDS011;41157;53.560;10.098;2023-12-22T03:44:07;1.13;;;0.87;;
55292;SDS011;41157;53.560;10.098;2023-12-22T03:46:34;4.03;;;0.80;;
55292;SDS011;41157;53.560;10.098;2023-12-22T03:49:03;5.33;;;1.20;;
55292;SDS011;41157;53.560;10.098;2023-12-22T03:51:30;5.27;;;1.20;;
55292;SDS011;41157;53.560;10.098;2023-12-22T03:53:57;9.07;;;1.37;;
55292;SDS011;41157;53.560;10.098;2023-12-22T03:56:24;4.73;;;1.17;;
55292;SDS011;41157;53.560;10.098;2023-12-22T03:58:51;3.27;;;1.10;;
55292;SDS011;41157;53.560;10.098;2023-12-22T04:01:18;6.60;;;1.17;;
55292;SDS011;41157;53.560;10.098;2023-12-22T04:03:45;8.73;;;1.23;;
55292;SDS011;41157;53.560;10.098;2023-12-22T04:06:13;6.63;;;1.20;;
55292;SDS011;41157;53.560;10.098;2023-12-22T04:08:40;9.17;;;1.50;;
55292;SDS011;41157;53.560;10.098;2023-12-22T04:11:07;6.30;;;1.63;;
55292;SDS011;41157;53.560;10.098;2023-12-22T04:13:34;6.83;;;1.30;;
55292;SDS011;41157;53.560;10.098;2023-12-22T04:16:01;7.37;;;1.37;;
55292;SDS011;41157;53.560;10.098;2023-12-22T04:18:30;6.00;;;1.50;;
55292;SDS011;41157;53.560;10.098;2023-12-22T04:20:57;6.83;;;1.53;;
55292;SDS011;41157;53.560;10.098;2023-12-22T04:23:25;6.60;;;1.73;;
55292;SDS011;41157;53.560;10.098;2023-12-22T04:25:52;13.83;;;2.37;;
55292;SDS011;41157;53.560;10.098;2023-12-22T04:28:19;5.40;;;1.80;;
55292;SDS011;41157;53.560;10.098;2023-12-22T04:30:46;8.70;;;1.67;;
55292;SDS011;41157;53.560;10.098;2023-12-22T04:33:13;10.27;;;1.87;;
55292;SDS011;41157;53.560;10.098;2023-12-22T04:35:40;6.20;;;2.17;;
55292;SDS011;41157;53.560;10.098;2023-12-22T04:38:07;14.93;;;2.03;;
55292;SDS011;41157;53.560;10.098;2023-12-22T04:40:36;6.67;;;1.70;;
55292;SDS011;41157;53.560;10.098;2023-12-22T04:43:03;10.77;;;1.80;;
55292;SDS011;41157;53.560;10.098;2023-12-22T04:45:30;10.87;;;1.87;;
55292;SDS011;41157;53.560;10.098;2023-12-22T04:47:57;15.57;;;1.93;;
55292;SDS011;41157;53.560;10.098;2023-12-22T04:50:24;8.57;;;1.60;;
55292;SDS011;41157;53.560;10.098;2023-12-22T04:52:51;5.47;;;1.50;;
55292;SDS011;41157;53.560;10.098;2023-12-22T04:55:18;8.37;;;2.00;;
55292;SDS011;41157;53.560;10.098;2023-12-22T04:57:46;14.93;;;1.97;;
55292;SDS011;41157;53.560;10.098;2023-12-22T05:00:14;11.87;;;1.80;;
55292;SDS011;41157;53.560;10.098;2023-12-22T05:02:41;7.57;;;1.40;;
55292;SDS011;41157;53.560;10.098;2023-12-22T05:05:08;6.43;;;1.77;;
55292;SDS011;41157;53.560;10.098;2023-12-22T05:07:36;10.10;;;2.00;;
55292;SDS011;41157;53.560;10.098;2023-12-22T05:10:05;7.10;;;1.83;;
55292;SDS011;41157;53.560;10.098;2023-12-22T05:12:32;7.87;;;1.93;;
55292;SDS011;41157;53.560;10.098;2023-12-22T05:15:00;9.30;;;1.70;;
55292;SDS011;41157;53.560;10.098;2023-12-22T05:17:27;6.10;;;1.30;;
55292;SDS011;41157;53.560;10.098;2023-12-22T05:19:54;7.17;;;1.60;;
55292;SDS011;41157;53.560;10.098;2023-12-22T05:22:21;4.07;;;1.60;;
55292;SDS011;41157;53.560;10.098;2023-12-22T05:24:48;8.77;;;1.73;;
55292;SDS011;41157;53.560;10.098;2023-12-22T05:27:15;8.83;;;1.90;;
55292;SDS011;41157;53.560;10.098;2023-12-22T05:29:42;10.83;;;1.67;;
55292;SDS011;41157;53.560;10.098;2023-12-22T05:32:11;5.30;;;1.50;;
55292;SDS011;41157;53.560;10.098;2023-12-22T05:34:38;10.40;;;1.90;;
55292;SDS011;41157;53.560;10.098;2023-12-22T05:37:05;7.53;;;1.30;;
55292;SDS011;41157;53.560;10.098;2023-12-22T05:39:32;8.97;;;1.80;;
55292;SDS011;41157;53.560;10.098;2023-12-22T05:41:59;7.10;;;1.63;;
55292;SDS011;41157;53.560;10.098;2023-12-22T05:44:26;7.77;;;1.97;;
55292;SDS011;41157;53.560;10.098;2023-12-22T05:46:55;12.77;;;2.60;;
55292;SDS011;41157;53.560;10.098;2023-12-22T05:49:23;8.90;;;2.20;;
55292;SDS011;41157;53.560;10.098;2023-12-22T05:51:50;5.97;;;1.50;;
55292;SDS011;41157;53.560;10.098;2023-12-22T05:54:17;4.50;;;1.33;;
55292;SDS011;41157;53.560;10.098;2023-12-22T05:56:45;4.37;;;1.40;;
55292;SDS011;41157;53.560;10.098;2023-12-22T05:59:12;6.53;;;1.50;;
55292;SDS011;41157;53.560;10.098;2023-12-22T06:01:39;7.80;;;2.27;;
55292;SDS011;41157;53.560;10.098;2023-12-22T06:04:06;7.50;;;2.23;;
55292;SDS011;41157;53.560;10.098;2023-12-22T06:06:35;3.90;;;1.43;;
55292;SDS011;41157;53.560;10.098;2023-12-22T06:09:03;5.47;;;1.37;;
55292;SDS011;41157;53.560;10.098;2023-12-22T06:11:30;10.57;;;1.63;;
55292;SDS011;41157;53.560;10.098;2023-12-22T06:13:57;3.67;;;1.27;;
55292;SDS011;41157;53.560;10.098;2023-12-22T06:16:24;4.93;;;1.40;;
55292;SDS011;41157;53.560;10.098;2023-12-22T06:18:51;3.47;;;1.30;;
55292;SDS011;41157;53.560;10.098;2023-12-22T06:21:18;6.27;;;1.77;;
55292;SDS011;41157;53.560;10.098;2023-12-22T06:23:46;7.27;;;2.90;;
55292;SDS011;41157;53.560;10.098;2023-12-22T06:26:13;9.03;;;2.40;;
55292;SDS011;41157;53.560;10.098;2023-12-22T06:28:40;8.60;;;1.37;;
55292;SDS011;41157;53.560;10.098;2023-12-22T06:31:08;10.43;;;1.47;;
55292;SDS011;41157;53.560;10.098;2023-12-22T06:33:35;9.40;;;1.87;;
55292;SDS011;41157;53.560;10.098;2023-12-22T06:36:02;12.40;;;2.17;;
55292;SDS011;41157;53.560;10.098;2023-12-22T06:38:30;4.30;;;1.70;;
55292;SDS011;41157;53.560;10.098;2023-12-22T06:40:58;6.70;;;1.50;;
55292;SDS011;41157;53.560;10.098;2023-12-22T06:43:25;4.53;;;1.90;;
55292;SDS011;41157;53.560;10.098;2023-12-22T06:45:52;11.07;;;2.13;;
55292;SDS011;41157;53.560;10.098;2023-12-22T06:48:20;12.83;;;2.10;;
55292;SDS011;41157;53.560;10.098;2023-12-22T06:50:47;6.07;;;1.90;;
55292;SDS011;41157;53.560;10.098;2023-12-22T06:53:14;12.00;;;1.77;;
55292;SDS011;41157;53.560;10.098;2023-12-22T06:55:41;10.47;;;2.30;;
55292;SDS011;41157;53.560;10.098;2023-12-22T06:58:09;12.47;;;2.60;;
55292;SDS011;41157;53.560;10.098;2023-12-22T07:00:36;11.40;;;2.57;;
55292;SDS011;41157;53.560;10.098;2023-12-22T07:03:04;9.23;;;2.67;;
55292;SDS011;41157;53.560;10.098;2023-12-22T07:05:32;8.80;;;1.93;;
55292;SDS011;41157;53.560;10.098;2023-12-22T07:08:01;17.07;;;3.03;;
55292;SDS011;41157;53.560;10.098;2023-12-22T07:10:28;18.37;;;3.23;;
55292;SDS011;41157;53.560;10.098;2023-12-22T07:12:55;12.10;;;2.13;;
55292;SDS011;41157;53.560;10.098;2023-12-22T07:15:23;21.63;;;3.53;;
55292;SDS011;41157;53.560;10.098;2023-12-22T07:17:50;17.43;;;3.30;;
55292;SDS011;41157;53.560;10.098;2023-12-22T07:20:18;16.53;;;3.07;;
55292;SDS011;41157;53.560;10.098;2023-12-22T07:22:45;22.20;;;3.97;;
55292;SDS011;41157;53.560;10.098;2023-12-22T07:25:12;15.13;;;3.03;;
55292;SDS011;41157;53.560;10.098;2023-12-22T07:27:39;16.60;;;3.30;;
55292;SDS011;41157;53.560;10.098;2023-12-22T07:30:06;16.17;;;2.80;;
55292;SDS011;41157;53.560;10.098;2023-12-22T07:32:38;19.10;;;3.83;;
55292;SDS011;41157;53.560;10.098;2023-12-22T07:35:05;12.30;;;2.80;;
55292;SDS011;41157;53.560;10.098;2023-12-22T07:37:35;9.17;;;2.47;;
55292;SDS011;41157;53.560;10.098;2023-12-22T07:40:03;20.83;;;3.53;;
55292;SDS011;41157;53.560;10.098;2023-12-22T07:42:30;20.27;;;3.30;;
55292;SDS011;41157;53.560;10.098;2023-12-22T07:44:57;14.07;;;2.93;;
55292;SDS011;41157;53.560;10.098;2023-12-22T07:47:24;22.20;;;3.60;;
55292;SDS011;41157;53.560;10.098;2023-12-22T07:49:53;18.33;;;3.60;;
55292;SDS011;41157;53.560;10.098;2023-12-22T07:52:20;9.57;;;2.40;;
55292;SDS011;41157;53.560;10.098;2023-12-22T07:54:47;11.03;;;2.37;;
55292;SDS011;41157;53.560;10.098;2023-12-22T07:57:14;18.07;;;3.87;;
55292;SDS011;41157;53.560;10.098;2023-12-22T07:59:52;15.00;;;3.70;;
55292;SDS011;41157;53.560;10.098;2023-12-22T08:02:19;13.73;;;2.97;;
55292;SDS011;41157;53.560;10.098;2023-12-22T08:04:47;19.33;;;3.30;;
55292;SDS011;41157;53.560;10.098;2023-12-22T08:07:16;13.60;;;2.77;;
55292;SDS011;41157;53.560;10.098;2023-12-22T08:09:43;15.80;;;3.10;;
55292;SDS011;41157;53.560;10.098;2023-12-22T08:12:10;11.43;;;2.27;;
55292;SDS011;41157;53.560;10.098;2023-12-22T08:14:37;9.90;;;2.17;;
55292;SDS011;41157;53.560;10.098;2023-12-22T08:17:06;11.17;;;2.27;;
55292;SDS011;41157;53.560;10.098;2023-12-22T08:19:35;9.93;;;2.83;;
55292;SDS011;41157;53.560;10.098;2023-12-22T08:24:46;6.80;;;1.80;;
55292;SDS011;41157;53.560;10.098;2023-12-22T08:27:14;12.50;;;2.27;;
55292;SDS011;41157;53.560;10.098;2023-12-22T08:29:49;10.20;;;1.40;;
55292;SDS011;41157;53.560;10.098;2023-12-22T08:32:16;7.80;;;1.83;;
55292;SDS011;41157;53.560;10.098;2023-12-22T08:34:44;8.87;;;1.87;;
55292;SDS011;41157;53.560;10.098;2023-12-22T08:37:11;13.07;;;2.10;;
55292;SDS011;41157;53.560;10.098;2023-12-22T08:39:39;14.90;;;2.17;;
55292;SDS011;41157;53.560;10.098;2023-12-22T08:42:07;10.47;;;1.87;;
55292;SDS011;41157;53.560;10.098;2023-12-22T08:44:34;6.33;;;1.90;;
55292;SDS011;41157;53.560;10.098;2023-12-22T08:47:02;6.57;;;1.90;;
55292;SDS011;41157;53.560;10.098;2023-12-22T08:49:29;14.57;;;2.83;;
55292;SDS011;41157;53.560;10.098;2023-12-22T08:52:05;13.23;;;2.70;;
55292;SDS011;41157;53.560;10.098;2023-12-22T08:54:32;12.20;;;2.70;;
55292;SDS011;41157;53.560;10.098;2023-12-22T08:57:00;16.63;;;2.93;;
55292;SDS011;41157;53.560;10.098;2023-12-22T08:59:28;10.83;;;2.40;;
55292;SDS011;41157;53.560;10.098;2023-12-22T09:01:55;14.80;;;3.17;;
55292;SDS011;41157;53.560;10.098;2023-12-22T09:04:22;12.40;;;3.23;;
55292;SDS011;41157;53.560;10.098;2023-12-22T09:06:49;11.87;;;2.40;;
55292;SDS011;41157;53.560;10.098;2023-12-22T09:09:16;8.67;;;2.03;;
55292;SDS011;41157;53.560;10.098;2023-12-22T09:11:43;6.43;;;1.63;;
55292;SDS011;41157;53.560;10.098;2023-12-22T09:14:10;8.70;;;1.70;;
55292;SDS011;41157;53.560;10.098;2023-12-22T09:16:39;7.10;;;2.07;;
55292;SDS011;41157;53.560;10.098;2023-12-22T09:19:07;7.43;;;1.50;;
55292;SDS011;41157;53.560;10.098;2023-12-22T09:21:34;5.70;;;1.90;;
55292;SDS011;41157;53.560;10.098;2023-12-22T09:24:11;10.03;;;1.60;;
55292;SDS011;41157;53.560;10.098;2023-12-22T09:26:38;6.30;;;1.87;;
55292;SDS011;41157;53.560;10.098;2023-12-22T09:29:05;3.70;;;1.60;;
55292;SDS011;41157;53.560;10.098;2023-12-22T09:31:33;11.03;;;1.83;;
55292;SDS011;41157;53.560;10.098;2023-12-22T09:34:01;8.73;;;1.83;;
55292;SDS011;41157;53.560;10.098;2023-12-22T09:36:29;12.37;;;2.43;;
55292;SDS011;41157;53.560;10.098;2023-12-22T09:39:00;7.87;;;2.43;;
55292;SDS011;41157;53.560;10.098;2023-12-22T09:41:30;8.93;;;1.80;;
55292;SDS011;41157;53.560;10.098;2023-12-22T09:43:58;8.07;;;1.93;;
55292;SDS011;41157;53.560;10.098;2023-12-22T09:46:26;5.90;;;2.50;;
55292;SDS011;41157;53.560;10.098;2023-12-22T09:48:55;7.27;;;2.00;;
55292;SDS011;41157;53.560;10.098;2023-12-22T09:51:23;11.23;;;2.17;;
55292;SDS011;41157;53.560;10.098;2023-12-22T09:53:50;4.47;;;1.73;;
55292;SDS011;41157;53.560;10.098;2023-12-22T09:56:18;6.70;;;2.00;;
55292;SDS011;41157;53.560;10.098;2023-12-22T09:58:45;8.60;;;2.20;;
55292;SDS011;41157;53.560;10.098;2023-12-22T10:01:12;10.47;;;2.27;;
55292;SDS011;41157;53.560;10.098;2023-12-22T10:03:40;6.93;;;2.60;;
55292;SDS011;41157;53.560;10.098;2023-12-22T10:06:09;8.63;;;1.90;;
55292;SDS011;41157;53.560;10.098;2023-12-22T10:08:38;10.70;;;2.10;;
55292;SDS011;41157;53.560;10.098;2023-12-22T10:11:06;8.43;;;2.43;;
55292;SDS011;41157;53.560;10.098;2023-12-22T10:13:33;11.50;;;1.93;;
55292;SDS011;41157;53.560;10.098;2023-12-22T10:16:03;7.67;;;2.27;;
55292;SDS011;41157;53.560;10.098;2023-12-22T10:18:31;9.40;;;2.50;;
55292;SDS011;41157;53.560;10.098;2023-12-22T10:20:58;7.50;;;2.27;;
55292;SDS011;41157;53.560;10.098;2023-12-22T10:23:26;12.10;;;2.17;;
55292;SDS011;41157;53.560;10.098;2023-12-22T10:25:54;7.43;;;2.03;;
55292;SDS011;41157;53.560;10.098;2023-12-22T10:28:26;11.73;;;3.60;;
55292;SDS011;41157;53.560;10.098;2023-12-22T10:30:53;13.93;;;2.47;;
55292;SDS011;41157;53.560;10.098;2023-12-22T10:33:22;8.70;;;2.70;;
55292;SDS011;41157;53.560;10.098;2023-12-22T10:35:49;8.17;;;2.30;;
55292;SDS011;41157;53.560;10.098;2023-12-22T10:38:17;18.77;;;2.50;;
55292;SDS011;41157;53.560;10.098;2023-12-22T10:40:45;11.70;;;2.47;;
55292;SDS011;41157;53.560;10.098;2023-12-22T10:43:14;15.40;;;2.93;;
55292;SDS011;41157;53.560;10.098;2023-12-22T10:45:41;19.73;;;3.57;;
55292;SDS011;41157;53.560;10.098;2023-12-22T10:48:08;15.03;;;3.30;;
55292;SDS011;41157;53.560;10.098;2023-12-22T10:50:38;20.80;;;2.67;;
55292;SDS011;41157;53.560;10.098;2023-12-22T10:53:05;10.73;;;3.37;;
55292;SDS011;41157;53.560;10.098;2023-12-22T10:55:34;9.87;;;3.03;;
55292;SDS011;41157;53.560;10.098;2023-12-22T10:58:01;8.83;;;2.70;;
55292;SDS011;41157;53.560;10.098;2023-12-22T11:00:30;13.43;;;2.17;;
55292;SDS011;41157;53.560;10.098;2023-12-22T11:02:59;12.13;;;2.80;;
55292;SDS011;41157;53.560;10.098;2023-12-22T11:05:28;8.93;;;2.73;;
55292;SDS011;41157;53.560;10.098;2023-12-22T11:07:56;9.07;;;2.03;;
55292;SDS011;41157;53.560;10.098;2023-12-22T11:10:26;9.60;;;2.00;;
55292;SDS011;41157;53.560;10.098;2023-12-22T11:12:53;12.83;;;2.50;;
55292;SDS011;41157;53.560;10.098;2023-12-22T11:15:23;10.23;;;2.20;;
55292;SDS011;41157;53.560;10.098;2023-12-22T11:17:53;7.53;;;2.07;;
55292;SDS011;41157;53.560;10.098;2023-12-22T11:20:23;7.83;;;1.77;;
55292;SDS011;41157;53.560;10.098;2023-12-22T11:22:51;12.60;;;2.50;;
55292;SDS011;41157;53.560;10.098;2023-12-22T11:25:18;7.53;;;2.27;;
55292;SDS011;41157;53.560;10.098;2023-12-22T11:27:46;7.80;;;2.37;;
55292;SDS011;41157;53.560;10.098;2023-12-22T11:30:13;7.80;;;1.77;;
55292;SDS011;41157;53.560;10.098;2023-12-22T11:32:41;8.63;;;2.00;;
55292;SDS011;41157;53.560;10.098;2023-12-22T11:35:09;11.83;;;1.90;;
55292;SDS011;41157;53.560;10.098;2023-12-22T11:37:36;6.60;;;2.23;;
55292;SDS011;41157;53.560;10.098;2023-12-22T11:40:05;9.77;;;2.10;;
55292;SDS011;41157;53.560;10.098;2023-12-22T11:42:33;8.17;;;2.00;;
55292;SDS011;41157;53.560;10.098;2023-12-22T11:45:04;7.13;;;1.87;;
55292;SDS011;41157;53.560;10.098;2023-12-22T11:47:31;6.70;;;1.63;;
55292;SDS011;41157;53.560;10.098;2023-12-22T11:49:59;10.30;;;1.87;;
55292;SDS011;41157;53.560;10.098;2023-12-22T11:52:27;12.00;;;1.80;;
55292;SDS011;41157;53.560;10.098;2023-12-22T11:54:55;3.53;;;1.70;;
55292;SDS011;41157;53.560;10.098;2023-12-22T11:57:33;9.03;;;1.50;;
55292;SDS011;41157;53.560;10.098;2023-12-22T12:00:06;7.83;;;1.97;;
55292;SDS011;41157;53.560;10.098;2023-12-22T12:02:34;7.00;;;2.07;;
55292;SDS011;41157;53.560;10.098;2023-12-22T12:05:02;12.70;;;2.43;;
55292;SDS011;41157;53.560;10.098;2023-12-22T12:07:37;12.37;;;2.53;;
55292;SDS011;41157;53.560;10.098;2023-12-22T12:10:05;14.07;;;2.27;;
55292;SDS011;41157;53.560;10.098;2023-12-22T12:12:32;7.50;;;2.20;;
55292;SDS011;41157;53.560;10.098;2023-12-22T12:15:04;10.40;;;2.37;;
55292;SDS011;41157;53.560;10.098;2023-12-22T12:17:33;10.70;;;2.33;;
55292;SDS011;41157;53.560;10.098;2023-12-22T12:20:03;11.97;;;2.13;;
55292;SDS011;41157;53.560;10.098;2023-12-22T12:22:34;14.30;;;2.00;;
55292;SDS011;41157;53.560;10.098;2023-12-22T12:25:05;8.10;;;1.97;;
55292;SDS011;41157;53.560;10.098;2023-12-22T12:27:34;11.43;;;2.50;;
55292;SDS011;41157;53.560;10.098;2023-12-22T12:30:06;11.97;;;2.50;;
55292;SDS011;41157;53.560;10.098;2023-12-22T12:32:34;14.47;;;2.33;;
55292;SDS011;41157;53.560;10.098;2023-12-22T12:35:02;8.40;;;2.20;;
55292;SDS011;41157;53.560;10.098;2023-12-22T12:37:30;6.20;;;2.00;;
55292;SDS011;41157;53.560;10.098;2023-12-22T12:39:58;10.03;;;2.30;;
55292;SDS011;41157;53.560;10.098;2023-12-22T12:42:28;9.00;;;2.77;;
55292;SDS011;41157;53.560;10.098;2023-12-22T12:44:56;12.20;;;2.80;;
55292;SDS011;41157;53.560;10.098;2023-12-22T12:47:22;11.77;;;2.40;;
55292;SDS011;41157;53.560;10.098;2023-12-22T12:49:56;7.07;;;1.93;;
55292;SDS011;41157;53.560;10.098;2023-12-22T12:52:23;10.57;;;2.13;;
55292;SDS011;41157;53.560;10.098;2023-12-22T12:54:51;9.93;;;2.47;;
55292;SDS011;41157;53.560;10.098;2023-12-22T12:57:18;9.53;;;2.40;;
55292;SDS011;41157;53.560;10.098;2023-12-22T12:59:47;10.63;;;2.77;;
55292;SDS011;41157;53.560;10.098;2023-12-22T13:02:15;10.43;;;2.10;;
55292;SDS011;41157;53.560;10.098;2023-12-22T13:04:42;13.53;;;2.33;;
55292;SDS011;41157;53.560;10.098;2023-12-22T13:07:09;12.77;;;2.20;;
55292;SDS011;41157;53.560;10.098;2023-12-22T13:09:37;5.13;;;1.93;;
55292;SDS011;41157;53.560;10.098;2023-12-22T13:12:07;12.50;;;2.17;;
55292;SDS011;41157;53.560;10.098;2023-12-22T13:14:34;9.23;;;1.90;;
55292;SDS011;41157;53.560;10.098;2023-12-22T13:17:03;7.27;;;2.13;;
55292;SDS011;41157;53.560;10.098;2023-12-22T13:19:30;6.10;;;2.23;;
55292;SDS011;41157;53.560;10.098;2023-12-22T13:21:58;13.30;;;2.87;;
55292;SDS011;41157;53.560;10.098;2023-12-22T13:24:25;20.37;;;3.73;;
55292;SDS011;41157;53.560;10.098;2023-12-22T13:26:59;13.77;;;2.80;;
55292;SDS011;41157;53.560;10.098;2023-12-22T13:29:27;13.73;;;2.87;;
55292;SDS011;41157;53.560;10.098;2023-12-22T13:31:54;12.53;;;2.27;;
55292;SDS011;41157;53.560;10.098;2023-12-22T13:34:24;11.83;;;2.47;;
55292;SDS011;41157;53.560;10.098;2023-12-22T13:36:51;14.50;;;2.77;;
55292;SDS011;41157;53.560;10.098;2023-12-22T13:39:18;11.80;;;2.20;;
55292;SDS011;41157;53.560;10.098;2023-12-22T13:41:45;10.37;;;2.63;;
55292;SDS011;41157;53.560;10.098;2023-12-22T13:44:13;10.83;;;2.77;;
55292;SDS011;41157;53.560;10.098;2023-12-22T13:46:40;10.17;;;2.13;;
55292;SDS011;41157;53.560;10.098;2023-12-22T13:49:08;18.17;;;2.57;;
55292;SDS011;41157;53.560;10.098;2023-12-22T13:51:41;12.90;;;2.23;;
55292;SDS011;41157;53.560;10.098;2023-12-22T13:54:08;11.13;;;2.70;;
55292;SDS011;41157;53.560;10.098;2023-12-22T13:56:35;12.67;;;2.80;;
55292;SDS011;41157;53.560;10.098;2023-12-22T13:59:05;11.10;;;2.57;;
55292;SDS011;41157;53.560;10.098;2023-12-22T14:01:32;13.87;;;2.50;;
55292;SDS011;41157;53.560;10.098;2023-12-22T14:03:59;5.77;;;1.73;;
55292;SDS011;41157;53.560;10.098;2023-12-22T14:06:26;7.03;;;1.60;;
55292;SDS011;41157;53.560;10.098;2023-12-22T14:08:55;8.57;;;2.60;;
55292;SDS011;41157;53.560;10.098;2023-12-22T14:11:22;9.67;;;2.87;;
55292;SDS011;41157;53.560;10.098;2023-12-22T14:13:49;5.80;;;1.80;;
55292;SDS011;41157;53.560;10.098;2023-12-22T14:16:16;8.67;;;1.90;;
55292;SDS011;41157;53.560;10.098;2023-12-22T14:18:43;13.30;;;2.47;;
55292;SDS011;41157;53.560;10.098;2023-12-22T14:21:11;12.47;;;1.97;;
55292;SDS011;41157;53.560;10.098;2023-12-22T14:23:38;13.77;;;2.33;;
55292;SDS011;41157;53.560;10.098;2023-12-22T14:26:06;9.07;;;2.00;;
55292;SDS011;41157;53.560;10.098;2023-12-22T14:28:34;12.93;;;2.33;;
55292;SDS011;41157;53.560;10.098;2023-12-22T14:31:01;3.40;;;1.73;;
55292;SDS011;41157;53.560;10.098;2023-12-22T14:33:28;5.90;;;1.67;;